Time,TemperatureF,DewpointF,PressureIn,WindDirection,WindDirectionDegrees,WindSpeedMPH,WindSpeedGustMPH,Humidity,HourlyPrecipIn,Conditions,Clouds,dailyrainin,SoftwareType,DateUTC
2013-02-10 00:21:00,16.0,1.0,-100.00,SE,140,8.0,16.0,51,0.00,,,0.01,,2013-02-10 07:21:00,
2013-02-10 00:31:00,16.0,1.0,-100.00,SE,140,8.0,16.0,51,0.00,,,0.01,,2013-02-10 07:31:00,
2013-02-10 00:41:00,16.0,1.0,-100.00,SE,140,8.0,16.0,51,0.00,,,0.01,,2013-02-10 07:41:00,
2013-02-10 00:51:00,16.0,1.0,-100.00,SE,140,8.0,16.0,51,0.00,,,0.01,,2013-02-10 07:51:00,
2013-02-10 01:21:00,14.0,-7.0,-100.00,ESE,118,3.0,12.0,37,0.01,,,0.02,,2013-02-10 08:21:00,
2013-02-10 02:21:00,15.0,-8.0,-100.00,NW,307,5.0,25.0,34,0.00,,,0.02,,2013-02-10 09:21:00,
2013-02-10 02:32:00,15.0,-8.0,-100.00,NW,307,5.0,25.0,34,0.00,,,0.02,,2013-02-10 09:32:00,
2013-02-10 02:41:00,15.0,-8.0,-100.00,NW,307,5.0,25.0,34,0.00,,,0.02,,2013-02-10 09:41:00,
2013-02-10 02:51:00,15.0,-8.0,-100.00,NW,307,5.0,25.0,34,0.00,,,0.02,,2013-02-10 09:51:00,
2013-02-10 03:21:00,14.0,-8.0,-100.00,NNE,16,3.0,24.0,36,0.00,,,0.02,,2013-02-10 10:21:00,
2013-02-10 03:31:00,14.0,-8.0,-100.00,NNE,16,3.0,24.0,36,0.00,,,0.02,,2013-02-10 10:31:00,
2013-02-10 03:42:00,14.0,-8.0,-100.00,NNE,16,3.0,24.0,36,0.00,,,0.02,,2013-02-10 10:42:00,
2013-02-10 03:51:00,14.0,-8.0,-100.00,NNE,16,3.0,24.0,36,0.00,,,0.02,,2013-02-10 10:51:00,
2013-02-10 04:22:00,12.0,-5.0,-100.00,West,269,3.0,8.0,45,0.00,,,0.02,,2013-02-10 11:22:00,
2013-02-10 04:32:00,12.0,-5.0,-100.00,West,269,3.0,8.0,45,0.00,,,0.02,,2013-02-10 11:32:00,
2013-02-10 04:42:00,12.0,-5.0,-100.00,West,269,3.0,8.0,45,0.00,,,0.02,,2013-02-10 11:42:00,
2013-02-10 04:52:00,12.0,-5.0,-100.00,West,269,3.0,8.0,45,0.00,,,0.02,,2013-02-10 11:52:00,
2013-02-10 08:22:00,15.0,-5.0,-100.00,SW,232,2.0,11.0,40,-99.99,,,0.02,,2013-02-10 15:22:00,
2013-02-10 08:32:00,15.0,-5.0,-100.00,SW,232,2.0,11.0,40,-99.99,,,0.02,,2013-02-10 15:32:00,
2013-02-10 08:42:00,15.0,-5.0,-100.00,SW,232,2.0,11.0,40,-99.99,,,0.02,,2013-02-10 15:42:00,
2013-02-10 08:52:00,15.0,-5.0,-100.00,SW,232,2.0,11.0,40,-99.99,,,0.02,,2013-02-10 15:52:00,
2013-02-10 09:22:00,20.0,-4.0,-100.00,SE,140,3.0,10.0,34,0.00,,,0.02,,2013-02-10 16:22:00,
2013-02-10 09:32:00,20.0,-4.0,-100.00,SE,140,3.0,10.0,34,0.00,,,0.02,,2013-02-10 16:32:00,
2013-02-10 09:42:00,20.0,-4.0,-100.00,SE,140,3.0,10.0,34,0.00,,,0.02,,2013-02-10 16:42:00,
2013-02-10 09:52:00,20.0,-4.0,-100.00,SE,140,3.0,10.0,34,0.00,,,0.02,,2013-02-10 16:52:00,
2013-02-10 10:22:00,20.0,-2.0,-100.00,SSW,196,9.0,15.0,37,0.00,,,0.02,,2013-02-10 17:22:00,
2013-02-10 10:32:00,20.0,-2.0,-100.00,SSW,196,9.0,15.0,37,0.00,,,0.02,,2013-02-10 17:32:00,
2013-02-10 10:42:00,20.0,-2.0,-100.00,SSW,196,9.0,15.0,37,0.00,,,0.02,,2013-02-10 17:42:00,
2013-02-10 10:52:00,20.0,-2.0,-100.00,SSW,196,9.0,15.0,37,0.00,,,0.02,,2013-02-10 17:52:00,
2013-02-10 11:22:00,23.0,-2.0,-100.00,SSW,205,9.0,18.0,33,0.00,,,0.02,,2013-02-10 18:22:00,
2013-02-10 11:32:00,23.0,-2.0,-100.00,SSW,205,9.0,18.0,33,0.00,,,0.02,,2013-02-10 18:32:00,
2013-02-10 11:42:00,23.0,-2.0,-100.00,SSW,205,9.0,18.0,33,0.00,,,0.02,,2013-02-10 18:42:00,
2013-02-10 11:52:00,23.0,-2.0,-100.00,SSW,205,9.0,18.0,33,0.00,,,0.02,,2013-02-10 18:52:00,
2013-02-10 12:22:00,23.0,-4.0,-100.00,NE,48,3.0,18.0,30,0.00,,,0.02,,2013-02-10 19:22:00,
2013-02-10 12:32:00,23.0,-4.0,-100.00,NE,48,3.0,18.0,30,0.00,,,0.02,,2013-02-10 19:32:00,
2013-02-10 12:42:00,23.0,-4.0,-100.00,NE,48,3.0,18.0,30,0.00,,,0.02,,2013-02-10 19:42:00,
2013-02-10 12:52:00,23.0,-4.0,-100.00,NE,48,3.0,18.0,30,0.00,,,0.02,,2013-02-10 19:52:00,
2013-02-10 13:22:00,24.0,-4.0,-100.00,SW,228,10.0,18.0,29,0.00,,,-99.99,,2013-02-10 20:22:00,
2013-02-10 13:32:00,24.0,-4.0,-100.00,SW,228,10.0,18.0,29,0.00,,,-99.99,,2013-02-10 20:32:00,
2013-02-10 13:42:00,24.0,-4.0,-100.00,SW,228,10.0,18.0,29,0.00,,,-99.99,,2013-02-10 20:42:00,
2013-02-10 13:52:00,24.0,-4.0,-100.00,SW,228,10.0,18.0,29,0.00,,,-99.99,,2013-02-10 20:52:00,
2013-02-10 14:22:00,27.0,-9.0,-100.00,SW,231,8.0,15.0,20,0.00,,,0.01,,2013-02-10 21:22:00,
2013-02-10 14:32:00,27.0,-9.0,-100.00,SW,231,8.0,15.0,20,0.00,,,0.01,,2013-02-10 21:32:00,
2013-02-10 14:42:00,27.0,-9.0,-100.00,SW,231,8.0,15.0,20,0.00,,,0.01,,2013-02-10 21:42:00,
2013-02-10 14:52:00,27.0,-9.0,-100.00,SW,231,8.0,15.0,20,0.00,,,0.01,,2013-02-10 21:52:00,
2013-02-10 15:22:00,26.0,-12.0,-100.00,SSW,213,8.0,18.0,18,0.00,,,0.01,,2013-02-10 22:22:00,
2013-02-10 15:32:00,26.0,-12.0,-100.00,SSW,213,8.0,18.0,18,0.00,,,0.01,,2013-02-10 22:32:00,
2013-02-10 16:22:00,25.0,-8.0,-100.00,South,186,7.0,17.0,23,0.00,,,0.01,,2013-02-10 23:22:00,
2013-02-10 16:32:00,25.0,-8.0,-100.00,South,186,7.0,17.0,23,0.00,,,0.01,,2013-02-10 23:32:00,
2013-02-10 16:42:00,25.0,-8.0,-100.00,South,186,7.0,17.0,23,0.00,,,0.01,,2013-02-10 23:42:00,
2013-02-10 16:52:00,25.0,-8.0,-100.00,South,186,7.0,17.0,23,0.00,,,0.01,,2013-02-10 23:52:00,
2013-02-10 17:22:00,19.0,2.0,-100.00,South,190,7.0,17.0,46,0.00,,,0.01,,2013-02-11 00:22:00,
2013-02-10 17:32:00,19.0,2.0,-100.00,South,190,7.0,17.0,46,0.00,,,0.01,,2013-02-11 00:32:00,
2013-02-10 17:42:00,19.0,2.0,-100.00,South,190,7.0,17.0,46,0.00,,,0.01,,2013-02-11 00:42:00,
2013-02-10 17:51:00,19.0,2.0,-100.00,South,190,7.0,17.0,46,0.00,,,0.01,,2013-02-11 00:51:00,
2013-02-10 18:21:00,16.0,6.0,-100.00,SSE,168,6.0,13.0,63,0.00,,,0.01,,2013-02-11 01:21:00,
2013-02-10 18:32:00,16.0,6.0,-100.00,SSE,168,6.0,13.0,63,0.00,,,0.01,,2013-02-11 01:32:00,
2013-02-10 18:42:00,16.0,6.0,-100.00,SSE,168,6.0,13.0,63,0.00,,,0.01,,2013-02-11 01:42:00,
2013-02-10 18:52:00,16.0,6.0,-100.00,SSE,168,6.0,13.0,63,0.00,,,0.01,,2013-02-11 01:52:00,
2013-02-10 19:21:00,16.0,6.0,-100.00,SSE,152,4.0,11.0,63,0.00,,,0.01,,2013-02-11 02:21:00,
2013-02-10 19:32:00,16.0,6.0,-100.00,SSE,152,4.0,11.0,63,0.00,,,0.01,,2013-02-11 02:32:00,
2013-02-10 19:42:00,16.0,6.0,-100.00,SSE,152,4.0,11.0,63,0.00,,,0.01,,2013-02-11 02:42:00,
2013-02-10 19:52:00,16.0,6.0,-100.00,SSE,152,4.0,11.0,63,0.00,,,0.01,,2013-02-11 02:52:00,
2013-02-10 20:21:00,16.0,8.0,-100.00,SSE,161,4.0,12.0,71,0.00,,,0.01,,2013-02-11 03:21:00,
2013-02-10 20:32:00,16.0,8.0,-100.00,SSE,161,4.0,12.0,71,0.00,,,0.01,,2013-02-11 03:32:00,
2013-02-10 20:42:00,16.0,8.0,-100.00,SSE,161,4.0,12.0,71,0.00,,,0.01,,2013-02-11 03:42:00,
2013-02-10 20:52:00,16.0,8.0,-100.00,SSE,161,4.0,12.0,71,0.00,,,0.01,,2013-02-11 03:52:00,
2013-02-10 21:21:00,14.0,9.0,-100.00,SE,131,4.0,11.0,79,0.00,,,0.01,,2013-02-11 04:21:00,
2013-02-10 21:32:00,14.0,9.0,-100.00,SE,131,4.0,11.0,79,0.00,,,0.01,,2013-02-11 04:32:00,
2013-02-10 21:42:00,14.0,9.0,-100.00,SE,131,4.0,11.0,79,0.00,,,0.01,,2013-02-11 04:42:00,
2013-02-10 21:51:00,14.0,9.0,-100.00,SE,131,4.0,11.0,79,0.00,,,0.01,,2013-02-11 04:51:00,
2013-02-10 22:22:00,14.0,10.0,-100.00,SE,144,3.0,6.0,85,0.00,,,0.01,,2013-02-11 05:22:00,
2013-02-10 22:32:00,14.0,10.0,-100.00,SE,144,3.0,6.0,85,0.00,,,0.01,,2013-02-11 05:32:00,
2013-02-10 22:42:00,14.0,10.0,-100.00,SE,144,3.0,6.0,85,0.00,,,0.01,,2013-02-11 05:42:00,
2013-02-10 22:52:00,14.0,10.0,-100.00,SE,144,3.0,6.0,85,0.00,,,0.01,,2013-02-11 05:52:00,
2013-02-10 23:21:00,14.0,11.0,-100.00,SE,141,5.0,9.0,87,0.00,,,0.01,,2013-02-11 06:21:00,
2013-02-10 23:32:00,14.0,11.0,-100.00,SE,141,5.0,9.0,87,0.00,,,0.01,,2013-02-11 06:32:00,
2013-02-10 23:42:00,14.0,11.0,-100.00,SE,141,5.0,9.0,87,0.00,,,0.01,,2013-02-11 06:42:00,
2013-02-10 23:51:00,14.0,11.0,-100.00,SE,141,5.0,9.0,87,0.00,,,0.01,,2013-02-11 06:51:00,